DLH59W EDDF-EDDM
Flight info
| Callsign | DLH59W |
|---|---|
| Flight time | N/A |
| Altitude | 23000 |
| Route | CINDY8S/18 CINDY Z74 HAREM T104 ROKIL ROKIL1B |
| Aircraft | A20N/M-SDE2E3FGHIRWXY/LB1 |
Departure
| Time | 2026-05-07 16:14 |
|---|---|
| Airport | Frankfurt Main Airport (EDDF) |
Arrival
| Time | N/A |
|---|---|
| Airport | Munich Airport (EDDM) |
| Time | Latitude | Longitude | Altitude | Speed | Heading |
|---|---|---|---|---|---|
| 2026-05-07 15:26 | 50.04534 | 8.56583 | 345 ft | 0 kts | 115° |
| 2026-05-07 15:58 | 50.04534 | 8.56581 | 345 ft | 0 kts | 116° |
| 2026-05-07 15:59 | 50.04538 | 8.56568 | 356 ft | 0 kts | 116° |
| 2026-05-07 15:59 | 50.04550 | 8.56531 | 356 ft | 3 kts | 122° |
| 2026-05-07 16:00 | 50.04554 | 8.56523 | 345 ft | 0 kts | 129° |
| 2026-05-07 16:00 | 50.04564 | 8.56505 | 350 ft | 3 kts | 135° |
| 2026-05-07 16:00 | 50.04584 | 8.56480 | 355 ft | 4 kts | 161° |
| 2026-05-07 16:00 | 50.04596 | 8.56476 | 351 ft | 0 kts | 182° |
| 2026-05-07 16:01 | 50.04592 | 8.56475 | 350 ft | 1 kts | 189° |
| 2026-05-07 16:01 | 50.04590 | 8.56474 | 350 ft | 0 kts | 192° |
| 2026-05-07 16:03 | 50.04588 | 8.56473 | 350 ft | 2 kts | 195° |
| 2026-05-07 16:03 | 50.04543 | 8.56434 | 347 ft | 14 kts | 218° |
| 2026-05-07 16:03 | 50.04497 | 8.56280 | 351 ft | 18 kts | 249° |
| 2026-05-07 16:04 | 50.04458 | 8.56134 | 350 ft | 12 kts | 249° |
| 2026-05-07 16:04 | 50.04419 | 8.56031 | 345 ft | 6 kts | 204° |
| 2026-05-07 16:04 | 50.04364 | 8.56048 | 351 ft | 12 kts | 154° |
| 2026-05-07 16:04 | 50.04271 | 8.56052 | 349 ft | 13 kts | 208° |
| 2026-05-07 16:05 | 50.04234 | 8.55919 | 349 ft | 16 kts | 251° |
| 2026-05-07 16:05 | 50.04192 | 8.55749 | 352 ft | 15 kts | 248° |
| 2026-05-07 16:05 | 50.04159 | 8.55621 | 353 ft | 10 kts | 250° |
| 2026-05-07 16:05 | 50.04131 | 8.55499 | 345 ft | 14 kts | 250° |
| 2026-05-07 16:06 | 50.04094 | 8.55340 | 349 ft | 14 kts | 250° |
| 2026-05-07 16:06 | 50.04059 | 8.55189 | 348 ft | 14 kts | 250° |
| 2026-05-07 16:06 | 50.04020 | 8.55028 | 352 ft | 18 kts | 249° |
| 2026-05-07 16:06 | 50.03973 | 8.54831 | 353 ft | 21 kts | 249° |
| 2026-05-07 16:07 | 50.03935 | 8.54672 | 352 ft | 0 kts | 249° |
| 2026-05-07 16:07 | 50.03923 | 8.54623 | 353 ft | 13 kts | 249° |
| 2026-05-07 16:07 | 50.03883 | 8.54459 | 345 ft | 18 kts | 249° |
| 2026-05-07 16:07 | 50.03821 | 8.54282 | 350 ft | 20 kts | 244° |
| 2026-05-07 16:08 | 50.03763 | 8.54070 | 354 ft | 23 kts | 248° |
| 2026-05-07 16:08 | 50.03702 | 8.53826 | 351 ft | 26 kts | 250° |
| 2026-05-07 16:08 | 50.03638 | 8.53558 | 346 ft | 25 kts | 249° |
| 2026-05-07 16:08 | 50.03582 | 8.53328 | 353 ft | 24 kts | 249° |
| 2026-05-07 16:09 | 50.03521 | 8.53074 | 345 ft | 26 kts | 249° |
| 2026-05-07 16:09 | 50.03459 | 8.52827 | 350 ft | 19 kts | 247° |
| 2026-05-07 16:09 | 50.03442 | 8.52764 | 349 ft | 0 kts | 247° |
| 2026-05-07 16:10 | 50.03435 | 8.52736 | 352 ft | 0 kts | 247° |
| 2026-05-07 16:10 | 50.03426 | 8.52703 | 352 ft | 8 kts | 247° |
| 2026-05-07 16:11 | 50.03381 | 8.52601 | 351 ft | 12 kts | 203° |
| 2026-05-07 16:11 | 50.03353 | 8.52594 | 348 ft | 0 kts | 178° |
| 2026-05-07 16:11 | 50.03352 | 8.52594 | 348 ft | 0 kts | 178° |
| 2026-05-07 16:13 | 50.03351 | 8.52594 | 345 ft | 2 kts | 178° |
| 2026-05-07 16:13 | 50.03211 | 8.52599 | 345 ft | 62 kts | 179° |
| 2026-05-07 16:13 | 50.02468 | 8.52599 | 346 ft | 145 kts | 180° |
| 2026-05-07 16:13 | 50.01329 | 8.52609 | 801 ft | 170 kts | 182° |
| 2026-05-07 16:14 | 50.00136 | 8.52595 | 1755 ft | 171 kts | 180° |
| 2026-05-07 16:14 | 49.98918 | 8.52598 | 2670 ft | 183 kts | 180° |
| 2026-05-07 16:14 | 49.97575 | 8.52632 | 3465 ft | 204 kts | 175° |
| 2026-05-07 16:14 | 49.96157 | 8.53461 | 3888 ft | 231 kts | 144° |
| 2026-05-07 16:15 | 49.95090 | 8.55385 | 3990 ft | 240 kts | 118° |
| 2026-05-07 16:15 | 49.94369 | 8.57746 | 4003 ft | 248 kts | 111° |
| 2026-05-07 16:15 | 49.93939 | 8.60366 | 4006 ft | 261 kts | 95° |
| 2026-05-07 16:15 | 49.93894 | 8.63214 | 3997 ft | 268 kts | 89° |
| 2026-05-07 16:16 | 49.93858 | 8.66138 | 3997 ft | 267 kts | 90° |
| 2026-05-07 16:16 | 49.93530 | 8.68968 | 4001 ft | 270 kts | 112° |
| 2026-05-07 16:16 | 49.92444 | 8.71279 | 4002 ft | 271 kts | 139° |
| 2026-05-07 16:16 | 49.90938 | 8.73040 | 3991 ft | 270 kts | 146° |
| 2026-05-07 16:17 | 49.89380 | 8.74683 | 4056 ft | 273 kts | 142° |
| 2026-05-07 16:17 | 49.88064 | 8.76811 | 4616 ft | 276 kts | 125° |
| 2026-05-07 16:17 | 49.87087 | 8.79380 | 5914 ft | 275 kts | 119° |
| 2026-05-07 16:17 | 49.86134 | 8.81980 | 7285 ft | 280 kts | 120° |
| 2026-05-07 16:18 | 49.85159 | 8.84635 | 8538 ft | 286 kts | 120° |
| 2026-05-07 16:18 | 49.84166 | 8.87350 | 9719 ft | 294 kts | 120° |
| 2026-05-07 16:18 | 49.83142 | 8.90157 | 10362 ft | 310 kts | 120° |
| 2026-05-07 16:18 | 49.82024 | 8.93223 | 10714 ft | 341 kts | 120° |
| 2026-05-07 16:19 | 49.80847 | 8.96461 | 10888 ft | 346 kts | 120° |
| 2026-05-07 16:19 | 49.79664 | 8.99712 | 10990 ft | 348 kts | 120° |
| 2026-05-07 16:19 | 49.78478 | 9.02970 | 10996 ft | 347 kts | 120° |
| 2026-05-07 16:19 | 49.77290 | 9.06225 | 11009 ft | 348 kts | 120° |
| 2026-05-07 16:20 | 49.76249 | 9.09620 | 11299 ft | 351 kts | 110° |
| 2026-05-07 16:20 | 49.75559 | 9.13163 | 11554 ft | 344 kts | 103° |
| 2026-05-07 16:20 | 49.74983 | 9.16829 | 11697 ft | 361 kts | 103° |
| 2026-05-07 16:20 | 49.74366 | 9.20731 | 12140 ft | 384 kts | 103° |
| 2026-05-07 16:21 | 49.73700 | 9.24723 | 13053 ft | 391 kts | 108° |
| 2026-05-07 16:21 | 49.72460 | 9.28482 | 14017 ft | 397 kts | 125° |
| 2026-05-07 16:21 | 49.70741 | 9.31863 | 14608 ft | 402 kts | 130° |
| 2026-05-07 16:21 | 49.68879 | 9.35107 | 14872 ft | 404 kts | 133° |
| 2026-05-07 16:22 | 49.66982 | 9.38319 | 14981 ft | 405 kts | 133° |
| 2026-05-07 16:22 | 49.65081 | 9.41539 | 15000 ft | 405 kts | 133° |
| 2026-05-07 16:22 | 49.63186 | 9.44748 | 15001 ft | 405 kts | 133° |
| 2026-05-07 16:22 | 49.61288 | 9.47960 | 15005 ft | 405 kts | 133° |
| 2026-05-07 16:23 | 49.59387 | 9.51184 | 15000 ft | 406 kts | 133° |
| 2026-05-07 16:23 | 49.57475 | 9.54426 | 14989 ft | 417 kts | 133° |
| 2026-05-07 16:23 | 49.55488 | 9.57795 | 14998 ft | 428 kts | 133° |
| 2026-05-07 16:23 | 49.53473 | 9.61211 | 15194 ft | 435 kts | 133° |
| 2026-05-07 16:24 | 49.51459 | 9.64634 | 16095 ft | 436 kts | 133° |
| 2026-05-07 16:24 | 49.49421 | 9.68126 | 16962 ft | 440 kts | 133° |
| 2026-05-07 16:24 | 49.47365 | 9.71671 | 17749 ft | 446 kts | 133° |
| 2026-05-07 16:24 | 49.45293 | 9.75261 | 18509 ft | 451 kts | 133° |
| 2026-05-07 16:25 | 49.43205 | 9.78885 | 19216 ft | 455 kts | 133° |
| 2026-05-07 16:25 | 49.41098 | 9.82543 | 19741 ft | 458 kts | 133° |
| 2026-05-07 16:25 | 49.38978 | 9.86221 | 19936 ft | 462 kts | 133° |
| 2026-05-07 16:25 | 49.36838 | 9.89925 | 19998 ft | 464 kts | 133° |
| 2026-05-07 16:26 | 49.34696 | 9.93628 | 19998 ft | 463 kts | 133° |
| 2026-05-07 16:26 | 49.32558 | 9.97324 | 19998 ft | 463 kts | 133° |
| 2026-05-07 16:26 | 49.30377 | 10.00979 | 19994 ft | 464 kts | 135° |
| 2026-05-07 16:26 | 49.28904 | 10.03376 | 19997 ft | 468 kts | 135° |
| 2026-05-07 16:27 | 49.25930 | 10.08205 | 19999 ft | 470 kts | 135° |
| 2026-05-07 16:27 | 49.23688 | 10.11841 | 19997 ft | 470 kts | 135° |
| 2026-05-07 16:27 | 49.21444 | 10.15478 | 20007 ft | 470 kts | 135° |
| 2026-05-07 16:27 | 49.19192 | 10.19124 | 20007 ft | 473 kts | 135° |
| 2026-05-07 16:28 | 49.16927 | 10.22786 | 20008 ft | 474 kts | 135° |
| 2026-05-07 16:28 | 49.14587 | 10.26360 | 20004 ft | 477 kts | 137° |
| 2026-05-07 16:28 | 49.12190 | 10.29850 | 20018 ft | 476 kts | 138° |
| 2026-05-07 16:28 | 49.09786 | 10.33342 | 20019 ft | 476 kts | 137° |
| 2026-05-07 16:29 | 49.07444 | 10.36918 | 20021 ft | 477 kts | 135° |
| 2026-05-07 16:29 | 49.05161 | 10.40578 | 20003 ft | 477 kts | 136° |
| 2026-05-07 16:29 | 49.02875 | 10.44171 | 20023 ft | 477 kts | 136° |
| 2026-05-07 16:29 | 49.00577 | 10.47776 | 19774 ft | 472 kts | 136° |
| 2026-05-07 16:30 | 48.98305 | 10.51344 | 19045 ft | 468 kts | 136° |
| 2026-05-07 16:30 | 48.96053 | 10.54880 | 18295 ft | 459 kts | 136° |
| 2026-05-07 16:30 | 48.93833 | 10.58371 | 17438 ft | 448 kts | 136° |
| 2026-05-07 16:30 | 48.91679 | 10.61744 | 16452 ft | 441 kts | 136° |
| 2026-05-07 16:31 | 48.89567 | 10.65046 | 15816 ft | 427 kts | 136° |
| 2026-05-07 16:31 | 48.87548 | 10.68200 | 15084 ft | 417 kts | 136° |
| 2026-05-07 16:31 | 48.85561 | 10.71304 | 14520 ft | 404 kts | 136° |
| 2026-05-07 16:31 | 48.83614 | 10.74341 | 13747 ft | 398 kts | 136° |
| 2026-05-07 16:32 | 48.81702 | 10.77323 | 13215 ft | 392 kts | 136° |
| 2026-05-07 16:32 | 48.79785 | 10.80312 | 13028 ft | 396 kts | 136° |
| 2026-05-07 16:32 | 48.77881 | 10.83315 | 12997 ft | 395 kts | 136° |
| 2026-05-07 16:32 | 48.75984 | 10.86325 | 12992 ft | 389 kts | 136° |
| 2026-05-07 16:33 | 48.74153 | 10.89211 | 12974 ft | 370 kts | 137° |
| 2026-05-07 16:33 | 48.72328 | 10.91944 | 12980 ft | 371 kts | 138° |
| 2026-05-07 16:33 | 48.70483 | 10.94695 | 12980 ft | 372 kts | 138° |
| 2026-05-07 16:33 | 48.68625 | 10.97408 | 12980 ft | 371 kts | 139° |
| 2026-05-07 16:34 | 48.66749 | 11.00103 | 12972 ft | 371 kts | 139° |
| 2026-05-07 16:34 | 48.64907 | 11.02752 | 12979 ft | 355 kts | 139° |
| 2026-05-07 16:34 | 48.63161 | 11.05274 | 12980 ft | 345 kts | 139° |
| 2026-05-07 16:34 | 48.61408 | 11.07803 | 12962 ft | 349 kts | 139° |
| 2026-05-07 16:35 | 48.59653 | 11.10334 | 12971 ft | 348 kts | 139° |
| 2026-05-07 16:35 | 48.57893 | 11.12830 | 12976 ft | 347 kts | 141° |
| 2026-05-07 16:35 | 48.55970 | 11.14990 | 12968 ft | 341 kts | 149° |
| 2026-05-07 16:35 | 48.54017 | 11.16930 | 12977 ft | 336 kts | 149° |
| 2026-05-07 16:36 | 48.52071 | 11.19031 | 12971 ft | 347 kts | 145° |
| 2026-05-07 16:36 | 48.50183 | 11.21304 | 12976 ft | 357 kts | 143° |
| 2026-05-07 16:36 | 48.48289 | 11.23752 | 12885 ft | 357 kts | 141° |
| 2026-05-07 16:36 | 48.46441 | 11.26225 | 12471 ft | 355 kts | 141° |
| 2026-05-07 16:37 | 48.44612 | 11.28704 | 12101 ft | 352 kts | 141° |
| 2026-05-07 16:37 | 48.42785 | 11.31180 | 11988 ft | 354 kts | 141° |
| 2026-05-07 16:37 | 48.40976 | 11.33702 | 11972 ft | 355 kts | 134° |
| 2026-05-07 16:37 | 48.39667 | 11.36853 | 11974 ft | 356 kts | 112° |
| 2026-05-07 16:38 | 48.39207 | 11.40399 | 11972 ft | 339 kts | 90° |
| 2026-05-07 16:38 | 48.39323 | 11.42700 | 11971 ft | 326 kts | 82° |
| 2026-05-07 16:38 | 48.39765 | 11.45936 | 11972 ft | 307 kts | 74° |
| 2026-05-07 16:38 | 48.40313 | 11.48953 | 11972 ft | 290 kts | 74° |
| 2026-05-07 16:39 | 48.40831 | 11.51799 | 11963 ft | 274 kts | 74° |
| 2026-05-07 16:39 | 48.41319 | 11.54503 | 11856 ft | 262 kts | 74° |
| 2026-05-07 16:39 | 48.41793 | 11.57116 | 11669 ft | 256 kts | 74° |
| 2026-05-07 16:39 | 48.42263 | 11.59703 | 11356 ft | 256 kts | 74° |
| 2026-05-07 16:40 | 48.42731 | 11.62277 | 11084 ft | 253 kts | 74° |
| 2026-05-07 16:40 | 48.43187 | 11.64785 | 10991 ft | 242 kts | 74° |
| 2026-05-07 16:40 | 48.43610 | 11.67122 | 10826 ft | 223 kts | 74° |
| 2026-05-07 16:40 | 48.44012 | 11.69341 | 10426 ft | 216 kts | 74° |
| 2026-05-07 16:41 | 48.44404 | 11.71510 | 9957 ft | 214 kts | 74° |
| 2026-05-07 16:41 | 48.44787 | 11.73665 | 9459 ft | 211 kts | 77° |
| 2026-05-07 16:41 | 48.44994 | 11.75832 | 9075 ft | 205 kts | 84° |
| 2026-05-07 16:41 | 48.45145 | 11.77978 | 8977 ft | 210 kts | 84° |
| 2026-05-07 16:42 | 48.45298 | 11.80160 | 8973 ft | 210 kts | 84° |
| 2026-05-07 16:42 | 48.45445 | 11.82350 | 8973 ft | 210 kts | 86° |
| 2026-05-07 16:42 | 48.45503 | 11.84551 | 8926 ft | 210 kts | 89° |
| 2026-05-07 16:42 | 48.45538 | 11.86742 | 9015 ft | 209 kts | 89° |
| 2026-05-07 16:43 | 48.45546 | 11.88941 | 9273 ft | 211 kts | 96° |
| 2026-05-07 16:43 | 48.45286 | 11.91115 | 9461 ft | 212 kts | 104° |
| 2026-05-07 16:43 | 48.44973 | 11.93274 | 9381 ft | 208 kts | 104° |
| 2026-05-07 16:43 | 48.44667 | 11.95382 | 9009 ft | 205 kts | 104° |
| 2026-05-07 16:44 | 48.44356 | 11.97486 | 8515 ft | 205 kts | 104° |
| 2026-05-07 16:44 | 48.44027 | 11.99575 | 8032 ft | 204 kts | 108° |
| 2026-05-07 16:44 | 48.43439 | 12.01506 | 7575 ft | 201 kts | 123° |
| 2026-05-07 16:44 | 48.42707 | 12.03297 | 7117 ft | 201 kts | 124° |
| 2026-05-07 16:45 | 48.41967 | 12.05069 | 6691 ft | 198 kts | 124° |
| 2026-05-07 16:45 | 48.41253 | 12.06756 | 6245 ft | 198 kts | 124° |
| 2026-05-07 16:45 | 48.40509 | 12.08500 | 5730 ft | 199 kts | 126° |
| 2026-05-07 16:45 | 48.39580 | 12.09977 | 5319 ft | 187 kts | 149° |
| 2026-05-07 16:46 | 48.38427 | 12.10431 | 4975 ft | 161 kts | 193° |
| 2026-05-07 16:46 | 48.37505 | 12.09638 | 4313 ft | 157 kts | 229° |
| 2026-05-07 16:46 | 48.37228 | 12.08195 | 4147 ft | 151 kts | 276° |
| 2026-05-07 16:46 | 48.37382 | 12.06692 | 3753 ft | 139 kts | 280° |
| 2026-05-07 16:47 | 48.37472 | 12.05274 | 3497 ft | 137 kts | 276° |
| 2026-05-07 16:47 | 48.37646 | 12.03887 | 3409 ft | 133 kts | 282° |
| 2026-05-07 16:47 | 48.37606 | 12.02516 | 3407 ft | 140 kts | 249° |
| 2026-05-07 16:47 | 48.37155 | 12.01179 | 3168 ft | 146 kts | 248° |
| 2026-05-07 16:48 | 48.36721 | 11.99697 | 3186 ft | 174 kts | 250° |
| 2026-05-07 16:48 | 48.36086 | 11.97924 | 3823 ft | 213 kts | 238° |
| 2026-05-07 16:48 | 48.35022 | 11.96023 | 4364 ft | 258 kts | 227° |
| 2026-05-07 16:48 | 48.33573 | 11.94325 | 4901 ft | 280 kts | 208° |
| 2026-05-07 16:49 | 48.31580 | 11.93673 | 5359 ft | 309 kts | 182° |
| 2026-05-07 16:49 | 48.29403 | 11.94000 | 5982 ft | 317 kts | 175° |
| 2026-05-07 16:49 | 48.27213 | 11.94491 | 6576 ft | 321 kts | 173° |
| 2026-05-07 16:49 | 48.25006 | 11.95098 | 6987 ft | 323 kts | 171° |
| 2026-05-07 16:50 | 48.22866 | 11.96079 | 7538 ft | 328 kts | 151° |
| 2026-05-07 16:50 | 48.21262 | 11.98558 | 7849 ft | 337 kts | 128° |
| 2026-05-07 16:50 | 48.19882 | 12.01385 | 7424 ft | 334 kts | 129° |
| 2026-05-07 16:50 | 48.18451 | 12.04124 | 6594 ft | 337 kts | 129° |
| 2026-05-07 16:51 | 48.17243 | 12.07239 | 5278 ft | 356 kts | 104° |
| 2026-05-07 16:51 | 48.17211 | 12.10796 | 5266 ft | 328 kts | 76° |
| 2026-05-07 16:51 | 48.18214 | 12.13713 | 5353 ft | 320 kts | 43° |
| 2026-05-07 16:51 | 48.20126 | 12.15173 | 5281 ft | 303 kts | 9° |
| 2026-05-07 16:52 | 48.22159 | 12.15459 | 5225 ft | 281 kts | 1° |
| 2026-05-07 16:52 | 48.24011 | 12.15550 | 5476 ft | 250 kts | 356° |
| 2026-05-07 16:52 | 48.25656 | 12.15419 | 5529 ft | 231 kts | 351° |
| 2026-05-07 16:52 | 48.27189 | 12.15097 | 5580 ft | 214 kts | 350° |
| 2026-05-07 16:53 | 48.28639 | 12.14938 | 5583 ft | 203 kts | 355° |
| 2026-05-07 16:53 | 48.30031 | 12.14942 | 5447 ft | 199 kts | 357° |
| 2026-05-07 16:53 | 48.31403 | 12.15029 | 5298 ft | 196 kts | 0° |
| 2026-05-07 16:53 | 48.32748 | 12.15244 | 5151 ft | 192 kts | 2° |
| 2026-05-07 16:54 | 48.33999 | 12.15327 | 5149 ft | 166 kts | 356° |
| 2026-05-07 16:54 | 48.35074 | 12.15334 | 5168 ft | 144 kts | 356° |
| 2026-05-07 16:54 | 48.36075 | 12.15364 | 5155 ft | 162 kts | 355° |
| 2026-05-07 16:54 | 48.37331 | 12.15218 | 5281 ft | 191 kts | 346° |
| 2026-05-07 16:55 | 48.38419 | 12.14407 | 5487 ft | 166 kts | 300° |
| 2026-05-07 16:55 | 48.38342 | 12.12703 | 4683 ft | 186 kts | 242° |
| 2026-05-07 16:55 | 48.37626 | 12.11180 | 4200 ft | 167 kts | 241° |
| 2026-05-07 16:55 | 48.37232 | 12.09712 | 3893 ft | 140 kts | 263° |
| 2026-05-07 16:56 | 48.37052 | 12.08363 | 3634 ft | 128 kts | 258° |
| 2026-05-07 16:56 | 48.36804 | 12.06844 | 3696 ft | 164 kts | 266° |
| 2026-05-07 16:56 | 48.37440 | 12.03176 | 4227 ft | 219 kts | 302° |
| 2026-05-07 16:57 | 48.38503 | 12.01278 | 4558 ft | 255 kts | 317° |
| 2026-05-07 16:57 | 48.40013 | 11.99671 | 5024 ft | 277 kts | 330° |
| 2026-05-07 16:57 | 48.41837 | 11.98537 | 5493 ft | 289 kts | 340° |
| 2026-05-07 16:57 | 48.43801 | 11.97885 | 5884 ft | 277 kts | 352° |
| 2026-05-07 16:58 | 48.45576 | 11.97953 | 5978 ft | 235 kts | 4° |
| 2026-05-07 16:58 | 48.47086 | 11.98237 | 5974 ft | 204 kts | 2° |